Time;durP1;ratioP1;P1;durP2;ratioP2;P2;SDS_P1;SDS_P2;PMS_P1;PMS_P2;Temp;Humidity;BMP_temperature;BMP_pressure;BME280_temperature;BME280_humidity;BME280_pressure;Samples;Min_cycle;Max_cycle;Signal;HPM_P1;HPM_P2
2022/12/04 00:00:41;;;;;;;42.55;20.70;;;;;;;;;;5049967;28;20148;-75
2022/12/04 00:03:07;;;;;;;37.40;21.00;;;;;;;;;;5048918;28;20048;-75
2022/12/04 00:05:33;;;;;;;38.47;20.90;;;;;;;;;;5050568;28;20082;-75
2022/12/04 00:07:59;;;;;;;37.53;21.10;;;;;;;;;;5050253;28;20056;-75
2022/12/04 00:10:26;;;;;;;38.13;20.42;;;;;;;;;;5050738;28;20048;-75
2022/12/04 00:12:52;;;;;;;38.63;20.67;;;;;;;;;;5067457;28;20166;-75
2022/12/04 00:15:18;;;;;;;38.03;20.33;;;;;;;;;;5069596;28;20079;-75
2022/12/04 00:17:46;;;;;;;37.67;20.48;;;;;;;;;;5068259;28;20093;-75
2022/12/04 00:20:12;;;;;;;39.20;21.00;;;;;;;;;;5070418;28;20036;-75
2022/12/04 00:22:38;;;;;;;37.92;20.70;;;;;;;;;;5066251;28;20101;-75
2022/12/04 00:25:05;;;;;;;41.00;21.25;;;;;;;;;;5067477;28;20131;-76
2022/12/04 00:27:31;;;;;;;39.78;21.65;;;;;;;;;;5051519;28;20158;-75
2022/12/04 00:29:57;;;;;;;39.17;20.48;;;;;;;;;;5049416;28;20056;-75
2022/12/04 00:32:23;;;;;;;35.60;19.30;;;;;;;;;;5050286;28;20047;-75
2022/12/04 00:34:52;;;;;;;36.40;19.73;;;;;;;;;;5067152;28;20056;-76
2022/12/04 00:37:18;;;;;;;39.03;20.25;;;;;;;;;;5048010;28;20044;-75
2022/12/04 00:39:44;;;;;;;39.10;20.17;;;;;;;;;;5048663;28;20048;-76
2022/12/04 00:42:10;;;;;;;44.05;22.08;;;;;;;;;;5049833;28;20130;-75
2022/12/04 00:44:36;;;;;;;37.05;19.98;;;;;;;;;;5068507;28;20542;-75
2022/12/04 00:47:02;;;;;;;39.05;19.88;;;;;;;;;;5066345;28;21970;-75
2022/12/04 00:49:28;;;;;;;42.92;21.05;;;;;;;;;;5063310;28;20670;-75
2022/12/04 00:51:54;;;;;;;41.88;21.58;;;;;;;;;;5050070;28;20224;-75
2022/12/04 00:54:20;;;;;;;40.25;21.40;;;;;;;;;;5049743;28;20064;-75
2022/12/04 00:56:46;;;;;;;42.45;19.73;;;;;;;;;;5066402;28;20051;-75
2022/12/04 00:59:12;;;;;;;42.13;20.80;;;;;;;;;;5045954;28;20146;-75
2022/12/04 01:01:38;;;;;;;51.75;23.13;;;;;;;;;;5045975;28;20522;-75
2022/12/04 01:04:04;;;;;;;40.97;21.30;;;;;;;;;;5066469;28;20071;-75
2022/12/04 01:06:33;;;;;;;43.00;23.80;;;;;;;;;;5046700;28;20124;-75
2022/12/04 01:09:00;;;;;;;41.60;21.02;;;;;;;;;;5064787;28;20055;-75
2022/12/04 01:11:27;;;;;;;40.42;21.45;;;;;;;;;;5065740;28;20049;-75
2022/12/04 01:13:53;;;;;;;39.85;20.05;;;;;;;;;;5046064;28;20081;-75
2022/12/04 01:16:21;;;;;;;39.22;20.92;;;;;;;;;;5046624;28;20044;-75
2022/12/04 01:18:47;;;;;;;40.42;21.08;;;;;;;;;;5048536;28;20087;-75
2022/12/04 01:21:13;;;;;;;36.00;20.13;;;;;;;;;;5047183;28;20052;-75
2022/12/04 01:23:40;;;;;;;39.85;20.85;;;;;;;;;;5066570;28;20054;-75
2022/12/04 01:26:06;;;;;;;41.72;21.50;;;;;;;;;;5064829;28;20063;-75
2022/12/04 01:28:32;;;;;;;37.13;20.15;;;;;;;;;;5046827;28;20044;-76
2022/12/04 01:31:09;;;;;;;39.38;20.05;;;;;;;;;;5030409;28;20048;-75
2022/12/04 01:33:35;;;;;;;39.90;20.33;;;;;;;;;;5046336;28;20052;-75
2022/12/04 01:36:02;;;;;;;39.92;20.40;;;;;;;;;;5047013;28;20045;-75
2022/12/04 01:38:29;;;;;;;39.13;19.98;;;;;;;;;;5044229;28;20060;-75
2022/12/04 01:40:55;;;;;;;38.50;20.60;;;;;;;;;;5065619;28;20142;-75
2022/12/04 01:43:21;;;;;;;44.03;21.83;;;;;;;;;;5045761;28;20392;-75
2022/12/04 01:45:49;;;;;;;41.47;21.55;;;;;;;;;;5046068;28;20044;-75
2022/12/04 01:48:32;;;;;;;42.05;22.02;;;;;;;;;;5064206;28;21873;-75
2022/12/04 01:51:02;;;;;;;43.95;21.00;;;;;;;;;;5050785;28;20053;-75
2022/12/04 01:53:29;;;;;;;40.95;20.95;;;;;;;;;;5065519;28;20047;-75
2022/12/04 01:55:55;;;;;;;43.05;20.77;;;;;;;;;;5046619;28;20619;-75
2022/12/04 01:58:24;;;;;;;47.15;24.13;;;;;;;;;;5036467;28;20440;-75
2022/12/04 02:00:52;;;;;;;42.53;20.60;;;;;;;;;;5046391;28;22275;-75
2022/12/04 02:03:18;;;;;;;42.45;23.30;;;;;;;;;;5045778;28;20051;-75
2022/12/04 02:05:44;;;;;;;40.05;20.02;;;;;;;;;;5064906;28;20039;-76
2022/12/04 02:08:10;;;;;;;40.83;22.42;;;;;;;;;;5063163;28;20791;-76
2022/12/04 02:10:47;;;;;;;42.33;22.20;;;;;;;;;;5066405;28;20082;-75
2022/12/04 02:13:28;;;;;;;44.60;22.58;;;;;;;;;;5064878;28;21609;-75
2022/12/04 02:15:57;;;;;;;45.55;23.65;;;;;;;;;;5029286;28;20150;-75
2022/12/04 02:18:23;;;;;;;46.80;22.23;;;;;;;;;;5045571;28;20119;-75
2022/12/04 02:20:59;;;;;;;40.47;21.73;;;;;;;;;;5047941;28;20051;-75
2022/12/04 02:23:35;;;;;;;45.22;22.67;;;;;;;;;;5063521;28;20055;-75
2022/12/04 02:26:02;;;;;;;43.55;21.92;;;;;;;;;;5034354;28;20055;-75
2022/12/04 02:28:39;;;;;;;45.90;22.98;;;;;;;;;;5062632;28;20048;-75
2022/12/04 02:31:08;;;;;;;45.92;23.90;;;;;;;;;;5048111;28;20052;-75
2022/12/04 02:33:42;;;;;;;41.28;22.05;;;;;;;;;;5063347;28;20858;-76
2022/12/04 02:36:14;;;;;;;46.60;22.92;;;;;;;;;;5028714;28;20063;-75
2022/12/04 02:38:42;;;;;;;43.55;23.85;;;;;;;;;;5065202;28;20043;-75
2022/12/04 02:41:11;;;;;;;43.03;23.30;;;;;;;;;;5032364;28;20125;-75
2022/12/04 02:43:43;;;;;;;47.60;24.23;;;;;;;;;;5045667;28;20052;-76
2022/12/04 02:46:25;;;;;;;43.55;23.08;;;;;;;;;;5044906;28;20055;-75
2022/12/04 02:48:52;;;;;;;43.75;23.52;;;;;;;;;;5062976;28;20796;-75
2022/12/04 02:51:20;;;;;;;47.65;24.33;;;;;;;;;;5045802;28;20522;-75
2022/12/04 02:53:55;;;;;;;44.10;23.58;;;;;;;;;;5042973;28;21984;-75
2022/12/04 02:56:32;;;;;;;50.60;24.50;;;;;;;;;;5043643;28;20052;-75
2022/12/04 02:59:01;;;;;;;43.35;23.40;;;;;;;;;;5043121;28;20059;-74
2022/12/04 03:01:30;;;;;;;49.00;24.33;;;;;;;;;;5061356;28;20120;-75
2022/12/04 03:04:05;;;;;;;45.08;25.02;;;;;;;;;;5028639;28;20154;-75
2022/12/04 03:06:33;;;;;;;49.72;26.38;;;;;;;;;;5044920;28;20049;-75
2022/12/04 03:09:02;;;;;;;49.25;25.02;;;;;;;;;;5044522;28;20052;-75
2022/12/04 03:11:29;;;;;;;50.45;24.67;;;;;;;;;;5048302;28;20063;-75
2022/12/04 03:14:01;;;;;;;46.08;25.23;;;;;;;;;;5043684;28;20067;-75
2022/12/04 03:16:30;;;;;;;46.65;25.63;;;;;;;;;;5062085;28;20055;-75
2022/12/04 03:18:58;;;;;;;49.85;26.05;;;;;;;;;;5044162;28;20049;-74
2022/12/04 03:21:27;;;;;;;48.38;25.98;;;;;;;;;;5042473;28;20452;-75
2022/12/04 03:24:00;;;;;;;49.10;27.27;;;;;;;;;;5044321;28;21068;-75
2022/12/04 03:26:29;;;;;;;50.55;27.73;;;;;;;;;;5058613;28;20040;-75
2022/12/04 03:29:00;;;;;;;46.55;24.77;;;;;;;;;;5041732;28;20404;-75
2022/12/04 03:31:48;;;;;;;55.58;27.35;;;;;;;;;;5060200;28;20410;-75
2022/12/04 03:34:17;;;;;;;53.90;26.67;;;;;;;;;;5040902;28;20048;-75
2022/12/04 03:36:55;;;;;;;48.60;25.65;;;;;;;;;;5040940;28;20055;-75
2022/12/04 03:39:27;;;;;;;46.90;25.52;;;;;;;;;;5025384;28;20663;-75
2022/12/04 03:42:23;;;;;;;51.05;27.20;;;;;;;;;;5040446;28;20044;-75
2022/12/04 03:44:55;;;;;;;53.85;27.58;;;;;;;;;;5015184;28;20082;-75
2022/12/04 03:47:34;;;;;;;51.67;27.65;;;;;;;;;;5025581;28;20043;-75
2022/12/04 03:50:00;;;;;;;49.80;26.45;;;;;;;;;;5041776;28;20052;-75
2022/12/04 03:52:42;;;;;;;53.50;27.15;;;;;;;;;;5042826;28;20052;-75
2022/12/04 03:55:29;;;;;;;52.80;29.63;;;;;;;;;;5030280;28;20055;-75
2022/12/04 03:57:59;;;;;;;50.17;27.42;;;;;;;;;;5041107;28;22024;-75
2022/12/04 04:00:25;;;;;;;54.65;29.05;;;;;;;;;;5039249;28;20060;-75
2022/12/04 04:02:58;;;;;;;53.03;28.63;;;;;;;;;;5027642;28;20047;-75
2022/12/04 04:05:24;;;;;;;53.28;28.58;;;;;;;;;;5044144;28;20091;-75
2022/12/04 04:07:53;;;;;;;52.60;28.40;;;;;;;;;;5040567;28;20063;-75
2022/12/04 04:10:21;;;;;;;55.72;29.70;;;;;;;;;;5041685;28;20064;-75
2022/12/04 04:24:13;;;;;;;57.35;29.02;;;;;;;;;;5047717;28;20454;-74
2022/12/04 04:26:42;;;;;;;54.97;28.95;;;;;;;;;;5059780;28;20044;-75
2022/12/04 04:29:09;;;;;;;53.55;28.65;;;;;;;;;;5058544;28;20629;-75
2022/12/04 04:31:38;;;;;;;58.55;28.65;;;;;;;;;;5061081;28;20052;-75
2022/12/04 04:34:04;;;;;;;52.42;27.95;;;;;;;;;;5061389;28;20060;-75
2022/12/04 04:36:53;;;;;;;57.10;29.42;;;;;;;;;;5044592;28;21064;-75
2022/12/04 04:39:40;;;;;;;53.53;28.98;;;;;;;;;;5062060;28;20047;-74
2022/12/04 04:42:27;;;;;;;55.85;29.20;;;;;;;;;;5035515;28;20141;-75
2022/12/04 04:45:15;;;;;;;48.05;26.90;;;;;;;;;;5046623;28;20151;-75
2022/12/04 04:47:47;;;;;;;56.83;29.02;;;;;;;;;;5043356;28;20084;-75
2022/12/04 04:50:14;;;;;;;52.10;29.10;;;;;;;;;;5060836;28;20056;-75
2022/12/04 04:52:43;;;;;;;59.08;31.35;;;;;;;;;;5043024;28;20088;-75
2022/12/04 04:55:10;;;;;;;55.28;29.90;;;;;;;;;;5042920;28;20080;-75
2022/12/04 04:57:36;;;;;;;57.08;30.30;;;;;;;;;;5058131;28;20056;-75
2022/12/04 05:00:10;;;;;;;58.88;31.83;;;;;;;;;;5043965;28;20165;-75
2022/12/04 05:02:37;;;;;;;56.80;30.65;;;;;;;;;;5060298;28;20058;-75
2022/12/04 05:05:03;;;;;;;55.78;31.00;;;;;;;;;;5059316;28;20079;-75
2022/12/04 05:07:29;;;;;;;56.95;31.42;;;;;;;;;;5060640;28;20052;-75
2022/12/04 05:09:55;;;;;;;59.70;30.63;;;;;;;;;;5043223;28;20142;-75
2022/12/04 05:12:21;;;;;;;53.17;29.52;;;;;;;;;;5041507;28;20060;-75
2022/12/04 05:14:47;;;;;;;56.83;30.10;;;;;;;;;;5045262;28;20048;-75
2022/12/04 05:17:13;;;;;;;55.80;29.95;;;;;;;;;;5042010;28;20052;-75
2022/12/04 05:19:57;;;;;;;63.05;31.70;;;;;;;;;;5030459;28;20063;-75
2022/12/04 05:22:31;;;;;;;55.45;31.45;;;;;;;;;;5041916;28;20043;-75
2022/12/04 05:24:57;;;;;;;57.35;30.67;;;;;;;;;;5044635;28;20053;-75
2022/12/04 05:27:24;;;;;;;63.03;31.35;;;;;;;;;;5043211;28;20127;-75
2022/12/04 05:29:54;;;;;;;58.63;31.95;;;;;;;;;;5062749;28;20143;-76
2022/12/04 05:32:21;;;;;;;60.63;31.42;;;;;;;;;;5061636;28;20036;-74
2022/12/04 05:34:48;;;;;;;57.92;31.35;;;;;;;;;;5060610;28;20182;-75
2022/12/04 05:37:14;;;;;;;61.10;31.65;;;;;;;;;;5060346;28;20044;-75
2022/12/04 05:39:40;;;;;;;59.80;31.70;;;;;;;;;;5042911;28;20052;-75
2022/12/04 05:42:06;;;;;;;57.53;30.13;;;;;;;;;;5043496;28;20177;-74
2022/12/04 05:44:32;;;;;;;63.70;32.70;;;;;;;;;;5042697;28;20049;-74
2022/12/04 05:46:58;;;;;;;60.55;32.03;;;;;;;;;;5045983;28;20052;-74
2022/12/04 05:49:24;;;;;;;58.53;30.75;;;;;;;;;;5044537;28;20056;-74
2022/12/04 05:51:51;;;;;;;57.75;29.65;;;;;;;;;;5042661;28;20331;-74
2022/12/04 05:54:17;;;;;;;63.97;32.72;;;;;;;;;;5060385;28;20063;-74
2022/12/04 05:56:44;;;;;;;58.70;30.83;;;;;;;;;;5044732;28;20140;-74
2022/12/04 05:59:10;;;;;;;61.03;31.98;;;;;;;;;;5048166;28;20040;-74
2022/12/04 06:01:36;;;;;;;61.75;32.40;;;;;;;;;;5059211;28;20055;-73
2022/12/04 06:04:02;;;;;;;61.03;31.23;;;;;;;;;;5061824;28;20048;-74
2022/12/04 06:06:29;;;;;;;57.20;31.17;;;;;;;;;;5043751;28;20045;-74
2022/12/04 06:08:56;;;;;;;59.78;31.25;;;;;;;;;;5042055;28;20073;-74
2022/12/04 06:11:23;;;;;;;58.63;31.73;;;;;;;;;;5029852;28;20060;-74
2022/12/04 06:13:49;;;;;;;59.25;31.33;;;;;;;;;;5041303;28;20060;-74
2022/12/04 06:16:23;;;;;;;55.75;29.30;;;;;;;;;;5060540;28;20052;-74
2022/12/04 06:18:50;;;;;;;57.95;31.02;;;;;;;;;;5043977;28;20087;-74
2022/12/04 06:21:17;;;;;;;57.72;30.05;;;;;;;;;;5047518;28;20048;-74
2022/12/04 06:23:43;;;;;;;58.15;31.55;;;;;;;;;;5043920;28;20058;-73
2022/12/04 06:26:09;;;;;;;56.80;30.25;;;;;;;;;;5046239;28;20052;-74
2022/12/04 06:28:36;;;;;;;66.28;32.55;;;;;;;;;;5041336;28;20449;-74
2022/12/04 06:31:06;;;;;;;61.78;32.50;;;;;;;;;;5059779;28;20066;-74
2022/12/04 06:33:32;;;;;;;56.05;29.98;;;;;;;;;;5041179;28;20503;-74
2022/12/04 06:36:03;;;;;;;55.40;29.83;;;;;;;;;;5058164;28;20049;-75
2022/12/04 06:38:29;;;;;;;54.45;30.38;;;;;;;;;;5060024;28;20048;-74
2022/12/04 06:40:55;;;;;;;54.83;30.60;;;;;;;;;;5046155;28;20071;-74
2022/12/04 06:43:21;;;;;;;55.40;30.15;;;;;;;;;;5045891;28;20048;-74
2022/12/04 06:45:48;;;;;;;55.22;30.15;;;;;;;;;;5046806;28;20063;-74
2022/12/04 06:48:14;;;;;;;54.13;29.23;;;;;;;;;;5062994;28;20674;-74
2022/12/04 06:50:40;;;;;;;51.90;28.73;;;;;;;;;;5044965;28;20051;-73
2022/12/04 06:53:06;;;;;;;56.70;30.02;;;;;;;;;;5044902;28;20044;-74
2022/12/04 06:55:32;;;;;;;62.53;31.58;;;;;;;;;;5062775;28;20178;-74
2022/12/04 06:57:58;;;;;;;60.08;30.65;;;;;;;;;;5061301;28;20130;-74
2022/12/04 07:00:24;;;;;;;58.92;28.73;;;;;;;;;;5044344;28;20093;-74
2022/12/04 07:02:50;;;;;;;52.65;28.48;;;;;;;;;;5063831;28;20040;-74
2022/12/04 07:05:16;;;;;;;55.58;28.85;;;;;;;;;;5043338;28;20109;-73
2022/12/04 07:07:42;;;;;;;59.60;33.33;;;;;;;;;;5045471;28;20056;-74
2022/12/04 07:10:08;;;;;;;58.70;31.25;;;;;;;;;;5043677;28;20469;-74
2022/12/04 07:12:35;;;;;;;54.47;31.55;;;;;;;;;;5061939;28;20549;-74
2022/12/04 07:15:01;;;;;;;58.40;28.67;;;;;;;;;;5060858;28;21133;-74
2022/12/04 07:17:27;;;;;;;56.78;30.95;;;;;;;;;;5061435;28;20073;-74
2022/12/04 07:19:53;;;;;;;56.83;30.05;;;;;;;;;;5042356;28;20084;-74
2022/12/04 07:22:19;;;;;;;54.90;28.60;;;;;;;;;;5023885;28;20048;-74
2022/12/04 07:24:45;;;;;;;56.42;29.52;;;;;;;;;;5032639;28;20083;-74
2022/12/04 07:27:11;;;;;;;58.80;30.35;;;;;;;;;;5041463;28;20144;-74
2022/12/04 07:29:37;;;;;;;56.50;31.48;;;;;;;;;;5042813;28;20051;-74
2022/12/04 07:32:03;;;;;;;55.05;29.25;;;;;;;;;;5061720;28;20121;-75
2022/12/04 07:34:29;;;;;;;55.58;28.25;;;;;;;;;;5061058;28;20418;-74
2022/12/04 07:36:55;;;;;;;54.95;30.10;;;;;;;;;;5040178;28;20560;-70
2022/12/04 07:39:21;;;;;;;53.17;28.38;;;;;;;;;;5042079;28;20336;-70
2022/12/04 07:41:47;;;;;;;51.03;27.15;;;;;;;;;;5043174;28;20147;-70
2022/12/04 07:44:13;;;;;;;51.95;29.75;;;;;;;;;;5041177;28;20151;-70
2022/12/04 07:46:39;;;;;;;53.08;28.20;;;;;;;;;;5040681;28;21394;-69
2022/12/04 07:49:06;;;;;;;51.00;27.35;;;;;;;;;;5060873;28;20664;-75
2022/12/04 07:51:32;;;;;;;58.50;29.02;;;;;;;;;;5043350;28;20052;-76
2022/12/04 07:53:58;;;;;;;48.13;26.00;;;;;;;;;;5024602;28;20052;-75
2022/12/04 07:56:24;;;;;;;50.92;27.77;;;;;;;;;;5062052;28;21280;-75
2022/12/04 07:58:50;;;;;;;55.17;29.27;;;;;;;;;;5045282;28;20048;-75
2022/12/04 08:01:16;;;;;;;52.13;29.00;;;;;;;;;;5059214;28;20057;-70
2022/12/04 08:03:43;;;;;;;57.15;28.90;;;;;;;;;;5037875;28;20279;-71
2022/12/04 08:06:09;;;;;;;46.55;26.27;;;;;;;;;;5058721;28;20231;-71
2022/12/04 08:08:35;;;;;;;50.50;27.50;;;;;;;;;;5043322;28;20383;-71
2022/12/04 08:11:05;;;;;;;50.60;26.85;;;;;;;;;;5045035;28;20587;-71
2022/12/04 08:13:31;;;;;;;50.83;28.30;;;;;;;;;;5045250;28;22136;-70
2022/12/04 08:16:00;;;;;;;48.17;27.77;;;;;;;;;;5043338;28;20044;-71
2022/12/04 08:18:26;;;;;;;48.33;27.50;;;;;;;;;;5042390;28;20057;-71
2022/12/04 08:20:53;;;;;;;50.45;28.52;;;;;;;;;;5046584;28;20048;-76
2022/12/04 08:23:19;;;;;;;47.88;26.98;;;;;;;;;;5066127;28;20051;-75
2022/12/04 08:25:45;;;;;;;43.88;26.75;;;;;;;;;;5063450;28;20058;-70
2022/12/04 08:28:11;;;;;;;47.38;27.08;;;;;;;;;;5044556;28;20245;-71
2022/12/04 08:30:37;;;;;;;50.08;26.75;;;;;;;;;;5047806;28;20408;-71
2022/12/04 08:33:03;;;;;;;52.92;25.70;;;;;;;;;;5066362;28;20112;-70
2022/12/04 08:35:29;;;;;;;48.90;27.25;;;;;;;;;;5046104;28;20048;-70
2022/12/04 08:37:55;;;;;;;51.25;25.73;;;;;;;;;;5063557;28;20047;-70
2022/12/04 08:40:22;;;;;;;44.70;25.45;;;;;;;;;;5053122;28;20048;-70
2022/12/04 08:42:48;;;;;;;44.88;25.25;;;;;;;;;;5044923;28;20504;-71
2022/12/04 08:45:14;;;;;;;45.10;25.70;;;;;;;;;;5047888;28;20121;-70
2022/12/04 08:47:40;;;;;;;45.40;25.35;;;;;;;;;;5067048;28;20048;-71
2022/12/04 08:50:06;;;;;;;44.17;25.27;;;;;;;;;;5051951;28;20063;-71
2022/12/04 08:52:32;;;;;;;45.35;24.45;;;;;;;;;;5058072;28;20048;-70
2022/12/04 08:54:58;;;;;;;44.20;24.92;;;;;;;;;;5071248;28;20040;-70
2022/12/04 08:57:25;;;;;;;47.13;24.70;;;;;;;;;;5066096;28;20377;-71
2022/12/04 08:59:51;;;;;;;40.10;23.23;;;;;;;;;;5081663;28;20590;-70
2022/12/04 09:02:17;;;;;;;40.88;24.08;;;;;;;;;;5054665;28;20052;-70
2022/12/04 09:04:43;;;;;;;39.40;23.48;;;;;;;;;;5043688;28;20049;-71
2022/12/04 09:07:09;;;;;;;41.42;24.02;;;;;;;;;;5055906;28;20052;-71
2022/12/04 09:09:35;;;;;;;40.75;23.98;;;;;;;;;;5054009;28;20050;-71
2022/12/04 09:12:01;;;;;;;42.67;24.65;;;;;;;;;;5062025;28;20048;-70
2022/12/04 09:14:27;;;;;;;42.25;23.23;;;;;;;;;;5046728;28;20063;-71
2022/12/04 09:16:54;;;;;;;42.75;22.48;;;;;;;;;;5041044;28;20458;-71
2022/12/04 09:19:20;;;;;;;38.40;22.95;;;;;;;;;;5064706;28;20063;-71
2022/12/04 09:21:47;;;;;;;44.33;23.90;;;;;;;;;;5050051;28;20110;-71
2022/12/04 09:24:13;;;;;;;45.03;23.83;;;;;;;;;;5038217;28;20377;-71
2022/12/04 09:26:39;;;;;;;41.53;24.17;;;;;;;;;;5049837;28;20040;-71
2022/12/04 09:29:06;;;;;;;40.83;23.83;;;;;;;;;;5062696;28;20106;-70
2022/12/04 09:31:33;;;;;;;42.75;24.15;;;;;;;;;;5051076;28;20056;-71
2022/12/04 09:33:59;;;;;;;43.47;24.05;;;;;;;;;;5045240;28;20139;-71
2022/12/04 09:36:25;;;;;;;42.70;23.27;;;;;;;;;;5060159;28;20049;-70
2022/12/04 09:38:52;;;;;;;44.13;23.90;;;;;;;;;;5045134;28;20055;-71
2022/12/04 09:41:18;;;;;;;38.47;23.27;;;;;;;;;;5060588;28;20137;-71
2022/12/04 09:44:08;;;;;;;41.25;22.90;;;;;;;;;;5046392;28;20045;-70
2022/12/04 09:46:34;;;;;;;37.75;22.23;;;;;;;;;;5037903;28;20368;-71
2022/12/04 09:49:02;;;;;;;39.13;20.92;;;;;;;;;;5044138;28;20098;-70
2022/12/04 09:51:30;;;;;;;36.92;21.30;;;;;;;;;;5043736;28;20075;-71
2022/12/04 09:53:59;;;;;;;36.78;22.45;;;;;;;;;;5051464;28;20051;-71
2022/12/04 09:56:27;;;;;;;34.42;20.08;;;;;;;;;;5043696;28;20108;-71
2022/12/04 09:58:56;;;;;;;38.60;20.73;;;;;;;;;;5058778;28;20142;-71
2022/12/04 10:01:24;;;;;;;39.45;21.75;;;;;;;;;;5040352;28;20056;-71
2022/12/04 10:03:52;;;;;;;35.13;20.38;;;;;;;;;;5056799;28;20096;-70
2022/12/04 10:06:21;;;;;;;37.15;21.08;;;;;;;;;;5040440;28;20078;-71
2022/12/04 10:09:00;;;;;;;34.70;20.50;;;;;;;;;;5021705;28;20153;-71
2022/12/04 10:11:29;;;;;;;35.38;20.50;;;;;;;;;;5059070;28;20139;-76
2022/12/04 10:14:05;;;;;;;33.63;20.05;;;;;;;;;;5044261;28;20052;-76
2022/12/04 10:16:43;;;;;;;35.30;19.98;;;;;;;;;;5044574;28;20858;-76
2022/12/04 10:19:16;;;;;;;36.75;19.73;;;;;;;;;;5048333;28;20087;-76
2022/12/04 10:21:50;;;;;;;34.03;19.35;;;;;;;;;;5058767;28;22575;-76
2022/12/04 10:24:39;;;;;;;34.60;19.63;;;;;;;;;;5023323;28;20048;-77
2022/12/04 10:27:11;;;;;;;34.90;19.15;;;;;;;;;;5039570;28;20048;-77
2022/12/04 10:29:38;;;;;;;33.40;19.27;;;;;;;;;;5039755;28;20048;-70
2022/12/04 10:32:34;;;;;;;32.08;19.63;;;;;;;;;;5039128;28;20313;-70
2022/12/04 10:35:15;;;;;;;32.15;19.00;;;;;;;;;;5042039;28;20051;-70
2022/12/04 10:37:42;;;;;;;32.50;19.45;;;;;;;;;;5047836;28;20131;-70
2022/12/04 10:40:23;;;;;;;34.13;18.77;;;;;;;;;;5058739;28;20055;-71
2022/12/04 10:42:56;;;;;;;31.77;20.13;;;;;;;;;;5039781;28;20063;-70
2022/12/04 10:45:23;;;;;;;33.30;19.40;;;;;;;;;;5038893;28;20119;-70
2022/12/04 10:47:50;;;;;;;34.50;20.20;;;;;;;;;;5059499;28;20209;-71
2022/12/04 10:50:18;;;;;;;31.25;19.33;;;;;;;;;;5039244;28;20048;-70
2022/12/04 10:52:44;;;;;;;28.27;17.70;;;;;;;;;;5058773;28;20052;-71
2022/12/04 10:55:11;;;;;;;29.98;19.02;;;;;;;;;;5037950;28;20139;-70
2022/12/04 10:57:38;;;;;;;35.47;19.55;;;;;;;;;;5039027;28;22243;-70
2022/12/04 11:00:23;;;;;;;36.90;20.52;;;;;;;;;;5055956;28;20048;-71
2022/12/04 11:02:49;;;;;;;;;;;;;;;;;;5040145;28;20058;-70
2022/12/04 11:05:27;;;;;;;31.83;18.95;;;;;;;;;;5054734;28;19947;-70
2022/12/04 11:07:54;;;;;;;33.83;20.33;;;;;;;;;;5053884;28;20048;-70
2022/12/04 11:10:56;;;;;;;33.67;20.25;;;;;;;;;;5037193;28;20064;-70
2022/12/04 11:13:22;;;;;;;30.60;18.23;;;;;;;;;;5009777;28;20048;-70
2022/12/04 11:15:49;;;;;;;31.38;18.90;;;;;;;;;;5043848;28;20043;-70
2022/12/04 11:18:23;;;;;;;30.73;18.63;;;;;;;;;;5054185;28;20066;-70
2022/12/04 11:20:54;;;;;;;32.70;18.88;;;;;;;;;;5033767;28;20052;-71
2022/12/04 11:23:20;;;;;;;33.13;19.17;;;;;;;;;;5035050;28;20044;-70
2022/12/04 11:25:47;;;;;;;32.08;19.20;;;;;;;;;;5054665;28;20048;-70
2022/12/04 11:28:19;;;;;;;30.88;19.35;;;;;;;;;;5037260;28;20075;-71
2022/12/04 11:30:50;;;;;;;34.13;18.13;;;;;;;;;;5020574;28;22041;-71
2022/12/04 11:33:18;;;;;;;30.00;17.58;;;;;;;;;;5055623;28;20047;-70
2022/12/04 11:35:50;;;;;;;30.20;18.27;;;;;;;;;;5053990;28;20075;-70
2022/12/04 11:38:18;;;;;;;33.33;19.65;;;;;;;;;;5052768;28;20964;-70
2022/12/04 11:40:48;;;;;;;31.83;18.60;;;;;;;;;;5058748;28;20090;-70
2022/12/04 11:43:16;;;;;;;29.40;18.20;;;;;;;;;;5039727;28;20052;-71
2022/12/04 11:45:53;;;;;;;28.90;17.70;;;;;;;;;;5058072;28;20140;-71
2022/12/04 11:48:20;;;;;;;31.38;17.73;;;;;;;;;;5056854;28;20096;-71
2022/12/04 11:50:53;;;;;;;29.88;17.13;;;;;;;;;;5038365;28;20058;-71
2022/12/04 11:53:26;;;;;;;27.27;16.77;;;;;;;;;;5052294;28;20595;-71
2022/12/04 11:55:58;;;;;;;31.40;16.48;;;;;;;;;;5037798;28;20663;-70
2022/12/04 11:58:43;;;;;;;31.55;17.92;;;;;;;;;;5057651;28;20044;-70
2022/12/04 12:01:32;;;;;;;24.95;16.10;;;;;;;;;;5056847;28;22068;-70
2022/12/04 12:03:58;;;;;;;34.65;17.88;;;;;;;;;;5056047;28;22285;-69
2022/12/04 12:06:36;;;;;;;31.27;17.40;;;;;;;;;;5037139;28;20179;-70
2022/12/04 12:09:02;;;;;;;30.05;16.63;;;;;;;;;;5033765;28;20141;-69
2022/12/04 12:11:40;;;;;;;28.75;17.05;;;;;;;;;;5014088;28;20091;-69
2022/12/04 12:14:18;;;;;;;27.58;16.58;;;;;;;;;;5052735;28;20653;-70
2022/12/04 12:16:44;;;;;;;26.95;16.38;;;;;;;;;;5037907;28;20485;-70
2022/12/04 12:19:31;;;;;;;28.77;17.38;;;;;;;;;;5049240;28;20056;-70
2022/12/04 12:22:04;;;;;;;26.58;15.88;;;;;;;;;;5025316;28;20143;-69
2022/12/04 12:24:50;;;;;;;28.15;16.33;;;;;;;;;;5033206;28;20062;-70
2022/12/04 12:27:16;;;;;;;30.17;17.48;;;;;;;;;;5025161;28;20201;-70
2022/12/04 12:30:01;;;;;;;30.38;17.40;;;;;;;;;;5038627;28;20055;-70
2022/12/04 12:32:34;;;;;;;30.20;17.73;;;;;;;;;;5037459;28;20040;-70
2022/12/04 12:35:01;;;;;;;30.45;18.38;;;;;;;;;;5055089;28;20076;-69
2022/12/04 12:37:43;;;;;;;31.73;17.02;;;;;;;;;;5054174;28;20388;-70
2022/12/04 12:40:15;;;;;;;34.85;18.10;;;;;;;;;;5053321;28;20182;-69
2022/12/04 12:42:49;;;;;;;35.53;18.42;;;;;;;;;;5052880;28;20056;-70
2022/12/04 12:45:21;;;;;;;33.17;18.23;;;;;;;;;;5050080;28;22080;-70
2022/12/04 12:47:50;;;;;;;31.92;17.70;;;;;;;;;;5042309;28;20089;-71
2022/12/04 12:50:21;;;;;;;34.97;18.95;;;;;;;;;;5051755;28;20071;-70
2022/12/04 12:53:07;;;;;;;31.02;17.65;;;;;;;;;;5053475;28;20511;-70
2022/12/04 12:55:36;;;;;;;28.92;17.58;;;;;;;;;;5058560;28;20051;-70
2022/12/04 12:58:25;;;;;;;35.22;18.75;;;;;;;;;;5038344;28;20131;-71
2022/12/04 13:01:00;;;;;;;33.95;19.13;;;;;;;;;;5016904;28;20055;-70
2022/12/04 13:03:29;;;;;;;34.05;19.42;;;;;;;;;;5056590;28;20163;-71
2022/12/04 13:05:59;;;;;;;34.40;19.45;;;;;;;;;;5051652;28;20045;-71
2022/12/04 13:08:29;;;;;;;37.63;18.80;;;;;;;;;;5057352;28;20052;-71
2022/12/04 13:10:58;;;;;;;36.13;19.98;;;;;;;;;;5039191;28;20047;-71
2022/12/04 13:13:26;;;;;;;34.13;19.25;;;;;;;;;;5038961;28;20059;-70
2022/12/04 13:16:03;;;;;;;35.28;19.55;;;;;;;;;;5056648;28;20052;-70
2022/12/04 13:18:52;;;;;;;35.40;19.38;;;;;;;;;;5057550;28;20097;-70
2022/12/04 13:21:38;;;;;;;35.70;19.63;;;;;;;;;;5050774;28;20060;-71
2022/12/04 13:24:39;;;;;;;34.65;19.35;;;3.80;99.90;;;;;;5054734;28;20102;-70
2022/12/04 13:27:11;;;;;;;36.65;20.92;;;;;;;;;;5058814;28;20083;-70
2022/12/04 13:29:56;;;;;;;36.40;20.15;;;;;;;;;;5055792;28;20041;-70
2022/12/04 13:32:25;;;;;;;36.20;20.02;;;;;;;;;;5056023;28;20384;-71
2022/12/04 13:34:58;;;;;;;32.90;18.77;;;;;;;;;;5055129;28;20107;-71
2022/12/04 13:37:41;;;;;;;40.85;20.20;;;;;;;;;;5054834;28;20113;-71
2022/12/04 13:40:26;;;;;;;34.75;19.85;;;;;;;;;;5057272;28;20053;-70
2022/12/04 13:42:52;;;;;;;36.53;20.05;;;;;;;;;;5039576;28;20054;-70
2022/12/04 13:45:26;;;;;;;33.88;19.70;;;;;;;;;;5057232;28;21795;-70
2022/12/04 13:47:59;;;;;;;35.25;20.58;;;;;;;;;;5058347;28;20064;-71
2022/12/04 13:50:28;;;;;;;31.80;19.50;;;;;;;;;;5056544;28;20197;-70
2022/12/04 13:52:54;;;;;;;36.58;19.40;;;;;;;;;;5048128;28;20135;-70
2022/12/04 13:55:29;;;;;;;34.10;20.17;;;;;;;;;;5059654;28;20059;-70
2022/12/04 13:58:10;;;;;;;38.35;21.02;;;;;;;;;;5039913;28;20052;-70
2022/12/04 14:00:38;;;;;;;36.67;20.20;;;;;;;;;;5054725;28;20063;-69
2022/12/04 14:03:05;;;;;;;37.25;21.60;;;;;;;;;;5054315;28;21709;-69
2022/12/04 14:05:42;;;;;;;36.50;21.73;;;;;;;;;;5038635;28;20052;-69
2022/12/04 14:08:25;;;;;;;37.55;21.80;;;;;;;;;;5062798;28;22205;-69
2022/12/04 14:11:12;;;;;;;35.70;20.95;;;;;;;;;;5059817;28;20174;-69
2022/12/04 14:13:43;;;;;;;38.70;22.02;;;;;;;;;;5043609;28;20083;-68
2022/12/04 14:16:28;;;;;;;36.80;19.45;;;;;;;;;;5060515;28;20929;-68
2022/12/04 14:18:56;;;;;;;38.22;21.10;;;;;;;;;;5054173;28;20044;-68
2022/12/04 14:21:23;;;;;;;35.75;21.13;;;;;;;;;;5043139;28;22010;-69
2022/12/04 14:23:50;;;;;;;36.30;20.67;;;;;;;;;;5061792;28;20040;-69
2022/12/04 14:26:22;;;;;;;38.60;22.02;;;;;;;;;;5065878;28;20046;-69
2022/12/04 14:28:48;;;;;;;38.45;22.02;;;;;;;;;;5043882;28;20047;-69
2022/12/04 14:31:19;;;;;;;40.85;21.92;;;;;;;;;;5043004;28;20110;-69
2022/12/04 14:33:59;;;;;;;42.55;23.02;;;;;;;;;;5059966;28;20052;-69
2022/12/04 14:36:30;;;;;;;41.78;22.70;;;;;;;;;;5042837;28;20894;-70
2022/12/04 14:39:15;;;;;;;39.35;22.05;;;;;;;;;;5058380;28;20052;-71
2022/12/04 14:41:41;;;;;;;;;;;;;;;;;;5055758;28;20043;-70
2022/12/04 14:44:14;;;;;;;42.15;22.20;;;;;;;;;;5053729;28;20293;-68
2022/12/04 14:46:49;;;;;;;42.87;22.70;;;;;;;;;;5058603;28;20048;-70